M I D A S
Marine Information and Data Acquisition System
Tripno 1790 of the Zeeleeuw from 2009-09-25 08:00:00 to 2009-09-25 17:00:00
Back to CruiseResearch ActivitiesStationsMapUnderway DataData graphs

EquipmentUnitsComment
TimeDGPSUTC
LatitudeDGPSDM.mWGS84
LongitudeDGPSDM.mWGS84
TemperatureSBE03/SBE38deg celciusITS90
ConductivitySBE21S/mITS90
SalinitySBE21 Practical Salinity Units
ChlorophylAChelsea fluorimeterg/lCalibrated in Aceton
Missing or incorrect values are displayed as -999
Sea surface data collected by the RV Zeeleeuw from 2009-09-25 08:00:00 to 2009-09-25 17:00:00
Time Latitude Longitude Temperature Conductivity Salinity ChlorophylA
2009-09-25 08:02:10 51°23.735 2°29.844 -999 -999 -999 -999
2009-09-25 08:04:10 51°23.758 2°29.852 -999 -999 -999 -999
2009-09-25 08:06:10 51°23.775 2°29.835 -999 -999 -999 -999
2009-09-25 08:08:10 51°23.76 2°29.784 -999 -999 -999 -999
2009-09-25 08:10:10 51°23.751 2°29.796 -999 -999 -999 -999
2009-09-25 08:12:10 51°23.742 2°29.829 -999 -999 -999 -999
2009-09-25 08:14:10 51°23.743 2°29.857 -999 -999 -999 -999
2009-09-25 08:16:10 51°23.748 2°29.879 -999 -999 -999 -999
2009-09-25 08:18:10 51°23.715 2°29.874 -999 -999 -999 -999
2009-09-25 08:20:10 51°23.721 2°29.836 -999 -999 -999 -999
2009-09-25 08:22:10 51°23.755 2°29.781 -999 -999 -999 -999
2009-09-25 08:24:10 51°23.789 2°29.679 -999 -999 -999 -999
2009-09-25 08:26:10 51°23.824 2°29.582 -999 -999 -999 -999
2009-09-25 08:28:10 51°23.821 2°29.465 -999 -999 -999 -999
2009-09-25 08:30:10 51°23.781 2°29.477 -999 -999 -999 -999
2009-09-25 08:32:10 51°23.779 2°29.522 -999 -999 -999 -999
2009-09-25 08:34:10 51°23.783 2°29.546 -999 -999 -999 -999
2009-09-25 08:36:10 51°23.792 2°29.558 -999 -999 -999 -999
2009-09-25 08:38:10 51°23.805 2°29.568 -999 -999 -999 -999
2009-09-25 08:40:10 51°23.818 2°29.578 -999 -999 -999 -999
2009-09-25 08:42:10 51°23.831 2°29.587 -999 -999 -999 -999
2009-09-25 08:44:10 51°23.843 2°29.595 -999 -999 -999 -999
2009-09-25 08:46:10 51°23.854 2°29.602 -999 -999 -999 -999
2009-09-25 08:48:10 51°23.865 2°29.609 -999 -999 -999 -999
2009-09-25 08:50:10 51°23.876 2°29.613 -999 -999 -999 -999
2009-09-25 08:52:10 51°23.887 2°29.616 -999 -999 -999 -999
2009-09-25 08:54:10 51°23.898 2°29.618 -999 -999 -999 -999
2009-09-25 08:56:10 51°23.909 2°29.619 -999 -999 -999 -999
2009-09-25 08:58:10 51°23.919 2°29.62 -999 -999 -999 -999
2009-09-25 09:00:10 51°23.929 2°29.619 -999 -999 -999 -999
2009-09-25 09:02:10 51°23.938 2°29.618 -999 -999 -999 -999
2009-09-25 09:04:10 51°23.947 2°29.615 -999 -999 -999 -999
2009-09-25 09:06:10 51°23.955 2°29.613 -999 -999 -999 -999
2009-09-25 09:08:10 51°23.961 2°29.61 -999 -999 -999 -999
2009-09-25 09:10:10 51°23.964 2°29.606 -999 -999 -999 -999
2009-09-25 09:12:10 51°23.966 2°29.603 -999 -999 -999 -999
2009-09-25 09:14:10 51°23.97 2°29.6 -999 -999 -999 -999
2009-09-25 09:16:10 51°23.975 2°29.596 -999 -999 -999 -999
2009-09-25 09:18:10 51°23.979 2°29.591 -999 -999 -999 -999
2009-09-25 09:20:10 51°23.981 2°29.587 -999 -999 -999 -999
2009-09-25 09:22:10 51°23.956 2°29.622 -999 -999 -999 -999
2009-09-25 09:24:10 51°23.936 2°29.632 -999 -999 -999 -999
2009-09-25 09:26:10 51°23.926 2°29.631 -999 -999 -999 -999
2009-09-25 09:28:10 51°23.921 2°29.625 -999 -999 -999 -999
2009-09-25 09:30:10 51°23.922 2°29.616 -999 -999 -999 -999
2009-09-25 09:32:10 51°23.925 2°29.603 -999 -999 -999 -999
2009-09-25 09:34:10 51°23.929 2°29.585 -999 -999 -999 -999
2009-09-25 09:36:10 51°23.931 2°29.561 -999 -999 -999 -999
2009-09-25 09:38:10 51°23.912 2°29.563 -999 -999 -999 -999
2009-09-25 09:40:10 51°23.849 2°29.535 -999 -999 -999 -999
2009-09-25 09:42:10 51°23.813 2°29.451 -999 -999 -999 -999
2009-09-25 09:44:10 51°23.835 2°29.344 -999 -999 -999 -999
2009-09-25 09:46:10 51°23.859 2°29.22 -999 -999 -999 -999
2009-09-25 09:48:10 51°23.893 2°29.103 -999 -999 -999 -999
2009-09-25 09:50:10 51°23.922 2°29.05 -999 -999 -999 -999
2009-09-25 09:52:10 51°23.952 2°29.084 -999 -999 -999 -999
2009-09-25 09:54:10 51°23.903 2°29.228 -999 -999 -999 -999
2009-09-25 09:56:10 51°23.8 2°29.537 -999 -999 -999 -999
2009-09-25 09:58:10 51°23.732 2°29.78 -999 -999 -999 -999
2009-09-25 10:00:10 51°23.716 2°29.871 -999 -999 -999 -999
2009-09-25 10:02:10 51°23.726 2°29.886 -999 -999 -999 -999
2009-09-25 10:04:10 51°23.731 2°29.873 -999 -999 -999 -999
2009-09-25 10:06:10 51°23.727 2°29.86 -999 -999 -999 -999
2009-09-25 10:08:10 51°23.732 2°29.873 -999 -999 -999 -999
2009-09-25 10:10:10 51°23.735 2°29.862 -999 -999 -999 -999
2009-09-25 10:12:10 51°23.724 2°29.847 -999 -999 -999 -999
2009-09-25 10:14:10 51°23.716 2°29.831 -999 -999 -999 -999
2009-09-25 10:16:10 51°23.73 2°29.81 -999 -999 -999 -999
2009-09-25 10:18:10 51°23.727 2°29.78 -999 -999 -999 -999
2009-09-25 10:20:10 51°23.72 2°29.754 -999 -999 -999 -999
2009-09-25 10:22:10 51°23.837 2°29.91 -999 -999 -999 -999
2009-09-25 10:24:10 51°24.037 2°30.333 -999 -999 -999 -999
2009-09-25 10:26:10 51°24.285 2°30.7 -999 -999 -999 -999
2009-09-25 10:28:10 51°24.504 2°31.107 -999 -999 -999 -999
2009-09-25 10:30:10 51°24.72 2°31.501 -999 -999 -999 -999
2009-09-25 10:32:10 51°24.79 2°31.63 -999 -999 -999 -999
2009-09-25 10:34:10 51°24.797 2°31.6 -999 -999 -999 -999
2009-09-25 10:36:10 51°24.783 2°31.562 -999 -999 -999 -999
2009-09-25 10:38:10 51°24.759 2°31.524 -999 -999 -999 -999
2009-09-25 10:40:10 51°24.729 2°31.485 -999 -999 -999 -999
2009-09-25 10:42:10 51°24.696 2°31.441 -999 -999 -999 -999
2009-09-25 10:44:10 51°24.66 2°31.392 -999 -999 -999 -999
2009-09-25 10:46:10 51°24.624 2°31.341 -999 -999 -999 -999
2009-09-25 10:48:10 51°24.588 2°31.289 -999 -999 -999 -999
2009-09-25 10:50:10 51°24.552 2°31.233 -999 -999 -999 -999
2009-09-25 10:52:10 51°24.517 2°31.175 -999 -999 -999 -999
2009-09-25 10:54:10 51°24.482 2°31.117 -999 -999 -999 -999
2009-09-25 10:56:10 51°24.446 2°31.056 -999 -999 -999 -999
2009-09-25 10:58:10 51°24.41 2°30.993 -999 -999 -999 -999
2009-09-25 11:00:10 51°24.356 2°30.959 -999 -999 -999 -999
2009-09-25 11:02:10 51°24.193 2°30.733 -999 -999 -999 -999
2009-09-25 11:04:10 51°23.922 2°30.242 -999 -999 -999 -999
2009-09-25 11:06:10 51°23.711 2°29.844 -999 -999 -999 -999
2009-09-25 11:08:10 51°23.676 2°29.728 -999 -999 -999 -999
2009-09-25 11:10:10 51°23.648 2°29.647 -999 -999 -999 -999
2009-09-25 11:12:10 51°23.619 2°29.573 -999 -999 -999 -999
2009-09-25 11:14:10 51°23.688 2°29.641 -999 -999 -999 -999
2009-09-25 11:16:10 51°23.715 2°29.758 -999 -999 -999 -999
2009-09-25 11:18:10 51°23.716 2°29.775 -999 -999 -999 -999
2009-09-25 11:20:10 51°23.716 2°29.737 -999 -999 -999 -999
2009-09-25 11:22:10 51°23.7 2°29.682 -999 -999 -999 -999
2009-09-25 11:24:10 51°23.673 2°29.626 -999 -999 -999 -999
2009-09-25 11:26:10 51°23.638 2°29.57 -999 -999 -999 -999
2009-09-25 11:28:10 51°23.599 2°29.516 -999 -999 -999 -999
2009-09-25 11:30:10 51°23.559 2°29.463 -999 -999 -999 -999
2009-09-25 11:32:10 51°23.518 2°29.41 -999 -999 -999 -999
2009-09-25 11:34:10 51°23.474 2°29.355 -999 -999 -999 -999
2009-09-25 11:36:10 51°23.436 2°29.31 -999 -999 -999 -999
2009-09-25 11:38:10 51°23.515 2°29.466 -999 -999 -999 -999
2009-09-25 11:40:10 51°23.65 2°29.633 -999 -999 -999 -999
2009-09-25 11:42:10 51°23.772 2°29.822 -999 -999 -999 -999
2009-09-25 11:44:10 51°23.824 2°29.943 -999 -999 -999 -999
2009-09-25 11:46:10 51°23.823 2°29.959 -999 -999 -999 -999
2009-09-25 11:48:10 51°23.807 2°29.933 -999 -999 -999 -999
2009-09-25 11:50:10 51°23.783 2°29.89 -999 -999 -999 -999
2009-09-25 11:52:10 51°23.753 2°29.844 -999 -999 -999 -999
2009-09-25 11:54:10 51°23.718 2°29.796 -999 -999 -999 -999
2009-09-25 11:56:10 51°23.68 2°29.746 -999 -999 -999 -999
2009-09-25 11:58:10 51°23.652 2°29.704 -999 -999 -999 -999
2009-09-25 13:00:10 51°23.365 2°29.313 -999 -999 -999 -999
2009-09-25 13:02:10 51°23.484 2°29.363 -999 -999 -999 -999
2009-09-25 13:04:10 51°23.638 2°29.649 -999 -999 -999 -999
2009-09-25 13:06:10 51°23.687 2°29.679 -999 -999 -999 -999
2009-09-25 13:08:10 51°23.726 2°29.707 -999 -999 -999 -999
2009-09-25 13:10:10 51°23.753 2°29.739 -999 -999 -999 -999
2009-09-25 13:12:10 51°23.764 2°29.743 -999 -999 -999 -999
2009-09-25 13:14:10 51°23.76 2°29.735 -999 -999 -999 -999
2009-09-25 13:16:10 51°23.749 2°29.723 -999 -999 -999 -999
2009-09-25 13:18:10 51°23.731 2°29.705 -999 -999 -999 -999
2009-09-25 13:20:10 51°23.66 2°29.856 -999 -999 -999 -999
2009-09-25 13:22:10 51°23.367 2°30.201 -999 -999 -999 -999
2009-09-25 13:24:10 51°23.058 2°30.563 -999 -999 -999 -999
2009-09-25 13:26:10 51°22.77 2°30.958 -999 -999 -999 -999
2009-09-25 13:28:10 51°22.512 2°31.387 -999 -999 -999 -999
2009-09-25 13:30:10 51°22.248 2°31.808 -999 -999 -999 -999
2009-09-25 13:32:10 51°22.012 2°32.263 -999 -999 -999 -999
2009-09-25 13:34:10 51°21.834 2°32.778 -999 -999 -999 -999
2009-09-25 13:36:10 51°21.652 2°33.308 -999 -999 -999 -999
2009-09-25 13:38:10 51°21.469 2°33.848 -999 -999 -999 -999
2009-09-25 13:40:10 51°21.241 2°34.336 -999 -999 -999 -999
2009-09-25 13:42:10 51°21.01 2°34.799 -999 -999 -999 -999
2009-09-25 13:44:10 51°20.777 2°35.259 -999 -999 -999 -999
2009-09-25 13:46:10 51°20.533 2°35.715 -999 -999 -999 -999
2009-09-25 13:48:10 51°20.277 2°36.161 -999 -999 -999 -999
2009-09-25 13:50:10 51°20.025 2°36.615 -999 -999 -999 -999
2009-09-25 13:52:10 51°19.801 2°37.108 -999 -999 -999 -999
2009-09-25 13:54:10 51°19.588 2°37.609 -999 -999 -999 -999
2009-09-25 13:56:10 51°19.377 2°38.104 -999 -999 -999 -999
2009-09-25 13:58:10 51°19.162 2°38.596 -999 -999 -999 -999
2009-09-25 14:00:10 51°18.951 2°39.099 -999 -999 -999 -999
2009-09-25 14:02:10 51°18.745 2°39.608 -999 -999 -999 -999
2009-09-25 14:04:10 51°18.532 2°40.12 -999 -999 -999 -999
2009-09-25 14:06:10 51°18.323 2°40.641 -999 -999 -999 -999
2009-09-25 14:08:10 51°18.103 2°41.152 -999 -999 -999 -999
2009-09-25 14:10:10 51°17.887 2°41.662 -999 -999 -999 -999
2009-09-25 14:12:10 51°17.678 2°42.175 -999 -999 -999 -999
2009-09-25 14:14:10 51°17.475 2°42.691 -999 -999 -999 -999
2009-09-25 14:16:10 51°17.267 2°43.215 -999 -999 -999 -999
2009-09-25 14:18:10 51°17.05 2°43.724 -999 -999 -999 -999
2009-09-25 14:20:10 51°16.834 2°44.228 -999 -999 -999 -999
2009-09-25 14:22:10 51°16.62 2°44.736 -999 -999 -999 -999
2009-09-25 14:24:10 51°16.399 2°45.247 -999 -999 -999 -999
2009-09-25 14:26:10 51°16.263 2°45.814 -999 -999 -999 -999
2009-09-25 14:28:10 51°16.193 2°46.424 -999 -999 -999 -999
2009-09-25 14:30:10 51°16.122 2°47.035 -999 -999 -999 -999
2009-09-25 14:32:10 51°16.032 2°47.644 -999 -999 -999 -999
2009-09-25 14:34:10 51°15.94 2°48.255 -999 -999 -999 -999
2009-09-25 14:36:10 51°15.843 2°48.864 -999 -999 -999 -999
2009-09-25 14:38:10 51°15.748 2°49.472 -999 -999 -999 -999
2009-09-25 14:40:10 51°15.662 2°50.084 -999 -999 -999 -999
2009-09-25 14:42:10 51°15.573 2°50.69 -999 -999 -999 -999
2009-09-25 14:44:10 51°15.493 2°51.287 -999 -999 -999 -999
2009-09-25 14:46:10 51°15.375 2°51.874 -999 -999 -999 -999
2009-09-25 14:48:10 51°15.25 2°52.458 -999 -999 -999 -999
2009-09-25 14:50:10 51°15.158 2°53.059 -999 -999 -999 -999
2009-09-25 14:52:10 51°15.036 2°53.645 -999 -999 -999 -999
2009-09-25 14:54:10 51°14.816 2°54.137 -999 -999 -999 -999
2009-09-25 14:56:10 51°14.596 2°54.637 -999 -999 -999 -999
2009-09-25 14:58:10 51°14.347 2°55.101 -999 -999 -999 -999
2009-09-25 15:00:10 51°14.103 2°55.439 -999 -999 -999 -999
2009-09-25 15:02:10 51°13.852 2°55.609 -999 -999 -999 -999
2009-09-25 15:04:10 51°13.71 2°55.809 -999 -999 -999 -999
2009-09-25 15:06:10 51°13.668 2°55.946 -999 -999 -999 -999